sensor_id;sensor_type;location;lat;lon;timestamp;pressure;altitude;pressure_sealevel;temperature;humidity
53506;BME280;39388;50.936;6.848;2023-02-12T00:00:57;103207.78;;;8.88;85.27
53506;BME280;39388;50.936;6.848;2023-02-12T00:03:27;103206.06;;;8.88;85.30
53506;BME280;39388;50.936;6.848;2023-02-12T00:06:00;103204.38;;;8.89;84.98
53506;BME280;39388;50.936;6.848;2023-02-12T00:08:31;103194.00;;;8.87;84.96
53506;BME280;39388;50.936;6.848;2023-02-12T00:11:15;103193.97;;;8.86;84.77
53506;BME280;39388;50.936;6.848;2023-02-12T00:13:46;103192.34;;;8.88;85.06
53506;BME280;39388;50.936;6.848;2023-02-12T00:16:19;103191.44;;;8.87;85.03
53506;BME280;39388;50.936;6.848;2023-02-12T00:18:51;103190.50;;;8.85;84.95
53506;BME280;39388;50.936;6.848;2023-02-12T00:21:23;103200.78;;;8.85;85.21
53506;BME280;39388;50.936;6.848;2023-02-12T00:23:53;103185.91;;;8.78;85.21
53506;BME280;39388;50.936;6.848;2023-02-12T00:26:24;103192.81;;;8.79;85.23
53506;BME280;39388;50.936;6.848;2023-02-12T00:28:54;103197.28;;;8.83;85.38
53506;BME280;39388;50.936;6.848;2023-02-12T00:31:27;103195.63;;;8.85;85.05
53506;BME280;39388;50.936;6.848;2023-02-12T00:33:58;103200.72;;;8.84;85.11
53506;BME280;39388;50.936;6.848;2023-02-12T00:36:30;103196.41;;;8.83;85.15
53506;BME280;39388;50.936;6.848;2023-02-12T00:39:01;103195.44;;;8.81;85.30
53506;BME280;39388;50.936;6.848;2023-02-12T00:41:32;103205.75;;;8.81;85.10
53506;BME280;39388;50.936;6.848;2023-02-12T00:44:03;103187.59;;;8.78;85.00
53506;BME280;39388;50.936;6.848;2023-02-12T00:46:33;103180.63;;;8.75;85.18
53506;BME280;39388;50.936;6.848;2023-02-12T00:49:03;103182.44;;;8.78;85.00
53506;BME280;39388;50.936;6.848;2023-02-12T00:51:34;103171.78;;;8.68;84.87
53506;BME280;39388;50.936;6.848;2023-02-12T00:54:04;103188.22;;;8.72;84.96
53506;BME280;39388;50.936;6.848;2023-02-12T00:56:35;103200.47;;;8.78;85.03
53506;BME280;39388;50.936;6.848;2023-02-12T00:59:05;103197.84;;;8.76;85.05
53506;BME280;39388;50.936;6.848;2023-02-12T01:01:35;103183.03;;;8.70;85.29
53506;BME280;39388;50.936;6.848;2023-02-12T01:04:06;103194.41;;;8.76;85.49
53506;BME280;39388;50.936;6.848;2023-02-12T01:06:36;103197.78;;;8.74;85.49
53506;BME280;39388;50.936;6.848;2023-02-12T01:09:07;103182.06;;;8.68;85.62
53506;BME280;39388;50.936;6.848;2023-02-12T01:11:38;103186.41;;;8.69;85.44
53506;BME280;39388;50.936;6.848;2023-02-12T01:14:08;103205.53;;;8.76;85.17
53506;BME280;39388;50.936;6.848;2023-02-12T01:16:39;103192.34;;;8.68;85.59
53506;BME280;39388;50.936;6.848;2023-02-12T01:19:11;103197.69;;;8.73;85.54
53506;BME280;39388;50.936;6.848;2023-02-12T01:21:42;103196.88;;;8.74;85.31
53506;BME280;39388;50.936;6.848;2023-02-12T01:24:12;103197.78;;;8.74;85.41
53506;BME280;39388;50.936;6.848;2023-02-12T01:26:42;103193.34;;;8.72;85.42
53506;BME280;39388;50.936;6.848;2023-02-12T01:29:13;103194.94;;;8.68;85.40
53506;BME280;39388;50.936;6.848;2023-02-12T01:31:43;103202.03;;;8.74;85.57
53506;BME280;39388;50.936;6.848;2023-02-12T01:34:13;103194.25;;;8.72;85.62
53506;BME280;39388;50.936;6.848;2023-02-12T01:36:44;103195.94;;;8.72;85.81
53506;BME280;39388;50.936;6.848;2023-02-12T01:39:14;103184.03;;;8.74;85.53
53506;BME280;39388;50.936;6.848;2023-02-12T01:41:45;103168.97;;;8.62;85.35
53506;BME280;39388;50.936;6.848;2023-02-12T01:44:23;103192.63;;;8.74;85.29
53506;BME280;39388;50.936;6.848;2023-02-12T01:47:03;103186.59;;;8.74;85.56
53506;BME280;39388;50.936;6.848;2023-02-12T01:49:39;103182.00;;;8.67;85.65
53506;BME280;39388;50.936;6.848;2023-02-12T01:54:43;103191.69;;;8.72;85.53
53506;BME280;39388;50.936;6.848;2023-02-12T01:57:14;103187.34;;;8.71;85.73
53506;BME280;39388;50.936;6.848;2023-02-12T01:59:48;103191.59;;;8.71;85.51
53506;BME280;39388;50.936;6.848;2023-02-12T02:02:20;103183.78;;;8.68;85.61
53506;BME280;39388;50.936;6.848;2023-02-12T02:05:00;103176.94;;;8.68;85.68
53506;BME280;39388;50.936;6.848;2023-02-12T02:07:32;103181.22;;;8.68;85.67
53506;BME280;39388;50.936;6.848;2023-02-12T02:10:03;103180.41;;;8.69;85.89
53506;BME280;39388;50.936;6.848;2023-02-12T02:12:33;103182.88;;;8.67;85.78
53506;BME280;39388;50.936;6.848;2023-02-12T02:15:25;103180.97;;;8.63;85.92
53506;BME280;39388;50.936;6.848;2023-02-12T02:33:21;103186.34;;;8.68;85.83
53506;BME280;39388;50.936;6.848;2023-02-12T02:41:56;103169.22;;;8.68;85.59
53506;BME280;39388;50.936;6.848;2023-02-12T02:44:52;103179.81;;;8.76;85.74
53506;BME280;39388;50.936;6.848;2023-02-12T02:47:27;103165.81;;;8.69;85.60
53506;BME280;39388;50.936;6.848;2023-02-12T02:50:13;103173.50;;;8.68;85.74
53506;BME280;39388;50.936;6.848;2023-02-12T02:52:52;103189.03;;;8.71;85.78
53506;BME280;39388;50.936;6.848;2023-02-12T02:55:28;103180.50;;;8.72;85.97
53506;BME280;39388;50.936;6.848;2023-02-12T02:58:06;103177.06;;;8.71;85.55
53506;BME280;39388;50.936;6.848;2023-02-12T03:00:44;103176.78;;;8.65;85.81
53506;BME280;39388;50.936;6.848;2023-02-12T03:03:23;103174.31;;;8.67;85.84
53506;BME280;39388;50.936;6.848;2023-02-12T03:05:59;103175.94;;;8.65;86.00
53506;BME280;39388;50.936;6.848;2023-02-12T03:08:47;103162.72;;;8.57;85.99
53506;BME280;39388;50.936;6.848;2023-02-12T03:11:30;103182.00;;;8.67;85.90
53506;BME280;39388;50.936;6.848;2023-02-12T03:14:07;103177.69;;;8.66;86.16
53506;BME280;39388;50.936;6.848;2023-02-12T03:16:47;103174.09;;;8.62;85.70
53506;BME280;39388;50.936;6.848;2023-02-12T03:19:28;103174.09;;;8.62;85.75
53506;BME280;39388;50.936;6.848;2023-02-12T03:22:09;103171.44;;;8.61;85.91
53506;BME280;39388;50.936;6.848;2023-02-12T03:24:50;103173.22;;;8.62;85.89
53506;BME280;39388;50.936;6.848;2023-02-12T03:29:56;103169.69;;;8.59;86.03
53506;BME280;39388;50.936;6.848;2023-02-12T03:35:31;103166.25;;;8.59;86.11
53506;BME280;39388;50.936;6.848;2023-02-12T03:41:25;103168.81;;;8.59;86.14
53506;BME280;39388;50.936;6.848;2023-02-12T03:44:14;103161.91;;;8.58;86.18
53506;BME280;39388;50.936;6.848;2023-02-12T03:49:30;103160.84;;;8.53;86.42
53506;BME280;39388;50.936;6.848;2023-02-12T03:52:02;103157.50;;;8.55;86.27
53506;BME280;39388;50.936;6.848;2023-02-12T03:54:33;103155.63;;;8.51;86.20
53506;BME280;39388;50.936;6.848;2023-02-12T03:57:09;103164.31;;;8.53;86.17
53506;BME280;39388;50.936;6.848;2023-02-12T03:59:42;103152.94;;;8.48;86.42
53506;BME280;39388;50.936;6.848;2023-02-12T04:02:15;103169.50;;;8.55;86.47
53506;BME280;39388;50.936;6.848;2023-02-12T04:04:46;103163.41;;;8.53;86.54
53506;BME280;39388;50.936;6.848;2023-02-12T04:07:17;103158.13;;;8.50;86.45
53506;BME280;39388;50.936;6.848;2023-02-12T04:09:47;103172.88;;;8.54;86.54
53506;BME280;39388;50.936;6.848;2023-02-12T04:18:18;103184.16;;;8.57;86.60
53506;BME280;39388;50.936;6.848;2023-02-12T04:26:36;103187.50;;;8.55;86.53
53506;BME280;39388;50.936;6.848;2023-02-12T04:29:27;103190.88;;;8.54;86.40
53506;BME280;39388;50.936;6.848;2023-02-12T04:32:10;103186.31;;;8.47;86.55
53506;BME280;39388;50.936;6.848;2023-02-12T04:37:41;103189.72;;;8.47;86.47
53506;BME280;39388;50.936;6.848;2023-02-12T04:40:16;103198.34;;;8.48;86.42
53506;BME280;39388;50.936;6.848;2023-02-12T04:42:49;103200.91;;;8.48;86.60
53506;BME280;39388;50.936;6.848;2023-02-12T04:45:24;103207.75;;;8.47;86.70
53506;BME280;39388;50.936;6.848;2023-02-12T04:47:55;103202.66;;;8.49;86.45
53506;BME280;39388;50.936;6.848;2023-02-12T04:50:27;103206.94;;;8.48;86.46
53506;BME280;39388;50.936;6.848;2023-02-12T04:53:03;103195.69;;;8.46;86.49
53506;BME280;39388;50.936;6.848;2023-02-12T04:55:34;103197.31;;;8.44;86.78
53506;BME280;39388;50.936;6.848;2023-02-12T04:58:05;103201.84;;;8.50;86.77
53506;BME280;39388;50.936;6.848;2023-02-12T05:00:36;103194.69;;;8.42;86.63
53506;BME280;39388;50.936;6.848;2023-02-12T05:03:06;103202.66;;;8.49;86.52
53506;BME280;39388;50.936;6.848;2023-02-12T05:05:37;103204.28;;;8.47;86.61
53506;BME280;39388;50.936;6.848;2023-02-12T05:08:07;103195.44;;;8.40;86.42
53506;BME280;39388;50.936;6.848;2023-02-12T05:10:37;103209.34;;;8.45;86.74
53506;BME280;39388;50.936;6.848;2023-02-12T05:13:09;103191.16;;;8.40;86.78
53506;BME280;39388;50.936;6.848;2023-02-12T05:15:39;103192.09;;;8.42;86.84
53506;BME280;39388;50.936;6.848;2023-02-12T05:18:10;103202.59;;;8.47;86.68
53506;BME280;39388;50.936;6.848;2023-02-12T05:20:40;103191.22;;;8.42;86.68
53506;BME280;39388;50.936;6.848;2023-02-12T05:23:10;103192.25;;;8.46;87.05
53506;BME280;39388;50.936;6.848;2023-02-12T05:25:41;103195.78;;;8.48;86.82
53506;BME280;39388;50.936;6.848;2023-02-12T05:28:11;103200.84;;;8.46;87.07
53506;BME280;39388;50.936;6.848;2023-02-12T05:30:41;103199.97;;;8.46;87.08
53506;BME280;39388;50.936;6.848;2023-02-12T05:33:12;103199.78;;;8.41;87.14
53506;BME280;39388;50.936;6.848;2023-02-12T05:35:42;103201.38;;;8.39;87.11
53506;BME280;39388;50.936;6.848;2023-02-12T05:38:12;103206.59;;;8.40;87.28
53506;BME280;39388;50.936;6.848;2023-02-12T05:40:43;103208.50;;;8.45;87.21
53506;BME280;39388;50.936;6.848;2023-02-12T05:43:13;103218.84;;;8.46;87.27
53506;BME280;39388;50.936;6.848;2023-02-12T05:45:44;103212.00;;;8.47;87.09
53506;BME280;39388;50.936;6.848;2023-02-12T05:48:14;103209.56;;;8.50;87.33
53506;BME280;39388;50.936;6.848;2023-02-12T05:50:44;103212.88;;;8.47;86.98
53506;BME280;39388;50.936;6.848;2023-02-12T05:53:15;103211.13;;;8.46;86.92
53506;BME280;39388;50.936;6.848;2023-02-12T05:55:45;103218.91;;;8.48;87.04
53506;BME280;39388;50.936;6.848;2023-02-12T05:58:16;103219.78;;;8.48;87.06
53506;BME280;39388;50.936;6.848;2023-02-12T06:00:46;103209.34;;;8.45;87.00
53506;BME280;39388;50.936;6.848;2023-02-12T06:03:16;103212.81;;;8.46;87.00
53506;BME280;39388;50.936;6.848;2023-02-12T06:05:50;103221.41;;;8.46;87.05
53506;BME280;39388;50.936;6.848;2023-02-12T06:08:21;103222.28;;;8.47;87.06
53506;BME280;39388;50.936;6.848;2023-02-12T06:10:51;103209.09;;;8.39;87.01
53506;BME280;39388;50.936;6.848;2023-02-12T06:13:21;103219.50;;;8.42;87.23
53506;BME280;39388;50.936;6.848;2023-02-12T06:15:52;103219.38;;;8.39;87.04
53506;BME280;39388;50.936;6.848;2023-02-12T06:18:22;103222.81;;;8.39;87.28
53506;BME280;39388;50.936;6.848;2023-02-12T06:20:53;103210.78;;;8.38;87.03
53506;BME280;39388;50.936;6.848;2023-02-12T06:23:24;103216.66;;;8.36;87.28
53506;BME280;39388;50.936;6.848;2023-02-12T06:25:55;103214.16;;;8.37;87.20
53506;BME280;39388;50.936;6.848;2023-02-12T06:28:26;103227.00;;;8.37;87.53
53506;BME280;39388;50.936;6.848;2023-02-12T06:30:56;103221.00;;;8.37;87.29
53506;BME280;39388;50.936;6.848;2023-02-12T06:33:26;103215.72;;;8.34;87.31
53506;BME280;39388;50.936;6.848;2023-02-12T06:35:57;103211.53;;;8.36;87.30
53506;BME280;39388;50.936;6.848;2023-02-12T06:38:27;103210.72;;;8.37;87.34
53506;BME280;39388;50.936;6.848;2023-02-12T06:41:00;103227.00;;;8.37;87.54
53506;BME280;39388;50.936;6.848;2023-02-12T06:43:31;103228.72;;;8.37;87.41
53506;BME280;39388;50.936;6.848;2023-02-12T06:46:03;103227.16;;;8.40;87.59
53506;BME280;39388;50.936;6.848;2023-02-12T06:48:34;103225.19;;;8.35;87.35
53506;BME280;39388;50.936;6.848;2023-02-12T06:53:36;103233.91;;;8.38;87.42
53506;BME280;39388;50.936;6.848;2023-02-12T06:56:08;103240.97;;;8.42;87.50
53506;BME280;39388;50.936;6.848;2023-02-12T06:58:44;103232.25;;;8.39;87.41
53506;BME280;39388;50.936;6.848;2023-02-12T07:01:18;103243.47;;;8.41;87.51
53506;BME280;39388;50.936;6.848;2023-02-12T07:03:51;103246.84;;;8.40;87.45
53506;BME280;39388;50.936;6.848;2023-02-12T07:06:23;103252.81;;;8.39;87.41
53506;BME280;39388;50.936;6.848;2023-02-12T07:08:56;103249.44;;;8.40;87.28
53506;BME280;39388;50.936;6.848;2023-02-12T07:11:29;103254.63;;;8.41;87.59
53506;BME280;39388;50.936;6.848;2023-02-12T07:14:00;103241.63;;;8.38;87.36
53506;BME280;39388;50.936;6.848;2023-02-12T07:16:30;103257.19;;;8.41;87.80
53506;BME280;39388;50.936;6.848;2023-02-12T07:19:01;103260.56;;;8.40;87.45
53506;BME280;39388;50.936;6.848;2023-02-12T07:21:31;103264.84;;;8.40;87.51
53506;BME280;39388;50.936;6.848;2023-02-12T07:24:05;103257.19;;;8.41;87.97
53506;BME280;39388;50.936;6.848;2023-02-12T07:26:35;103254.69;;;8.43;87.56
53506;BME280;39388;50.936;6.848;2023-02-12T07:29:06;103254.81;;;8.46;87.68
53506;BME280;39388;50.936;6.848;2023-02-12T07:31:36;103244.19;;;8.38;87.53
53506;BME280;39388;50.936;6.848;2023-02-12T07:34:08;103267.78;;;8.48;87.67
53506;BME280;39388;50.936;6.848;2023-02-12T07:36:39;103263.44;;;8.47;87.19
53506;BME280;39388;50.936;6.848;2023-02-12T07:39:11;103253.16;;;8.47;87.53
53506;BME280;39388;50.936;6.848;2023-02-12T07:41:42;103266.25;;;8.53;87.65
53506;BME280;39388;50.936;6.848;2023-02-12T07:44:12;103268.94;;;8.54;87.46
53506;BME280;39388;50.936;6.848;2023-02-12T07:46:45;103277.50;;;8.55;87.27
53506;BME280;39388;50.936;6.848;2023-02-12T07:49:18;103277.44;;;8.53;87.27
53506;BME280;39388;50.936;6.848;2023-02-12T07:51:49;103284.34;;;8.54;87.53
53506;BME280;39388;50.936;6.848;2023-02-12T07:54:19;103267.16;;;8.53;87.69
53506;BME280;39388;50.936;6.848;2023-02-12T07:56:50;103277.78;;;8.61;87.52
53506;BME280;39388;50.936;6.848;2023-02-12T07:59:21;103273.38;;;8.58;87.59
53506;BME280;39388;50.936;6.848;2023-02-12T08:01:52;103277.03;;;8.64;87.63
53506;BME280;39388;50.936;6.848;2023-02-12T08:04:24;103268.97;;;8.56;87.29
53506;BME280;39388;50.936;6.848;2023-02-12T08:06:55;103282.03;;;8.61;87.53
53506;BME280;39388;50.936;6.848;2023-02-12T08:09:28;103289.09;;;8.65;87.57
53506;BME280;39388;50.936;6.848;2023-02-12T08:12:02;103291.66;;;8.65;87.34
53506;BME280;39388;50.936;6.848;2023-02-12T08:14:33;103283.94;;;8.65;87.44
53506;BME280;39388;50.936;6.848;2023-02-12T08:17:03;103291.00;;;8.69;87.29
53506;BME280;39388;50.936;6.848;2023-02-12T08:19:34;103297.16;;;8.72;87.17
53506;BME280;39388;50.936;6.848;2023-02-12T08:22:04;103289.28;;;8.69;87.14
53506;BME280;39388;50.936;6.848;2023-02-12T08:24:35;103297.50;;;8.80;87.27
53506;BME280;39388;50.936;6.848;2023-02-12T08:27:05;103293.50;;;8.87;87.33
53506;BME280;39388;50.936;6.848;2023-02-12T08:29:36;103301.69;;;8.98;86.98
53506;BME280;39388;50.936;6.848;2023-02-12T08:32:06;103301.78;;;9.01;86.91
53506;BME280;39388;50.936;6.848;2023-02-12T08:34:39;103298.69;;;9.08;86.94
53506;BME280;39388;50.936;6.848;2023-02-12T08:37:09;103295.34;;;9.11;86.57
53506;BME280;39388;50.936;6.848;2023-02-12T08:39:40;103301.50;;;9.14;86.50
53506;BME280;39388;50.936;6.848;2023-02-12T08:42:10;103299.03;;;9.16;86.49
53506;BME280;39388;50.936;6.848;2023-02-12T08:44:41;103307.59;;;9.16;86.46
53506;BME280;39388;50.936;6.848;2023-02-12T08:47:12;103305.03;;;9.16;86.77
53506;BME280;39388;50.936;6.848;2023-02-12T08:49:42;103307.75;;;9.19;86.59
53506;BME280;39388;50.936;6.848;2023-02-12T08:52:12;103307.22;;;9.27;86.62
53506;BME280;39388;50.936;6.848;2023-02-12T08:54:43;103307.41;;;9.31;86.35
53506;BME280;39388;50.936;6.848;2023-02-12T08:57:13;103301.53;;;9.35;86.11
53506;BME280;39388;50.936;6.848;2023-02-12T08:59:44;103300.09;;;9.42;86.30
53506;BME280;39388;50.936;6.848;2023-02-12T09:02:14;103296.94;;;9.48;86.22
53506;BME280;39388;50.936;6.848;2023-02-12T09:04:44;103297.09;;;9.53;86.00
53506;BME280;39388;50.936;6.848;2023-02-12T09:07:15;103272.66;;;9.43;85.57
53506;BME280;39388;50.936;6.848;2023-02-12T09:09:45;103298.97;;;9.57;85.52
53506;BME280;39388;50.936;6.848;2023-02-12T09:12:15;103295.66;;;9.59;85.36
53506;BME280;39388;50.936;6.848;2023-02-12T09:14:46;103299.19;;;9.61;85.31
53506;BME280;39388;50.936;6.848;2023-02-12T09:17:16;103295.78;;;9.62;84.90
53506;BME280;39388;50.936;6.848;2023-02-12T09:19:46;103294.25;;;9.68;85.01
53506;BME280;39388;50.936;6.848;2023-02-12T09:22:17;103292.59;;;9.68;84.95
53506;BME280;39388;50.936;6.848;2023-02-12T09:24:47;103300.66;;;9.77;84.75
53506;BME280;39388;50.936;6.848;2023-02-12T09:27:17;103304.31;;;9.83;84.40
53506;BME280;39388;50.936;6.848;2023-02-12T09:29:48;103305.22;;;9.85;84.12
53506;BME280;39388;50.936;6.848;2023-02-12T09:32:18;103305.53;;;9.91;84.37
53506;BME280;39388;50.936;6.848;2023-02-12T09:34:48;103291.81;;;9.92;83.97
53506;BME280;39388;50.936;6.848;2023-02-12T09:37:19;103306.81;;;10.02;83.99
53506;BME280;39388;50.936;6.848;2023-02-12T09:39:49;103309.47;;;10.04;83.45
53506;BME280;39388;50.936;6.848;2023-02-12T09:45:24;103295.81;;;10.06;83.19
53506;BME280;39388;50.936;6.848;2023-02-12T09:50:44;103304.66;;;10.13;82.97
53506;BME280;39388;50.936;6.848;2023-02-12T09:53:20;103316.91;;;10.19;83.12
53506;BME280;39388;50.936;6.848;2023-02-12T09:55:52;103303.09;;;10.17;82.93
53506;BME280;39388;50.936;6.848;2023-02-12T09:58:31;103313.84;;;10.29;82.37
53506;BME280;39388;50.936;6.848;2023-02-12T10:01:10;103305.47;;;10.35;82.33
53506;BME280;39388;50.936;6.848;2023-02-12T10:03:43;103304.09;;;10.43;82.24
53506;BME280;39388;50.936;6.848;2023-02-12T10:12:03;103311.72;;;10.64;81.61
53506;BME280;39388;50.936;6.848;2023-02-12T10:23:01;103307.88;;;10.77;80.57
53506;BME280;39388;50.936;6.848;2023-02-12T10:25:48;103308.78;;;10.78;80.35
53506;BME280;39388;50.936;6.848;2023-02-12T10:30:59;103314.72;;;10.75;79.88
53506;BME280;39388;50.936;6.848;2023-02-12T10:33:44;103318.88;;;10.71;79.75
53506;BME280;39388;50.936;6.848;2023-02-12T10:36:30;103320.78;;;10.77;79.95
53506;BME280;39388;50.936;6.848;2023-02-12T10:42:13;103309.91;;;10.86;79.61
53506;BME280;39388;50.936;6.848;2023-02-12T10:44:45;103316.25;;;10.94;78.97
53506;BME280;39388;50.936;6.848;2023-02-12T10:47:19;103305.16;;;10.97;79.07
53506;BME280;39388;50.936;6.848;2023-02-12T10:49:55;103308.09;;;11.08;78.62
53506;BME280;39388;50.936;6.848;2023-02-12T10:52:39;103308.31;;;11.14;78.45
53506;BME280;39388;50.936;6.848;2023-02-12T10:55:28;103305.94;;;11.20;78.13
53506;BME280;39388;50.936;6.848;2023-02-12T10:58:01;103299.03;;;11.19;78.01
53506;BME280;39388;50.936;6.848;2023-02-12T11:00:34;103304.41;;;11.25;77.48
53506;BME280;39388;50.936;6.848;2023-02-12T11:05:42;103309.16;;;11.39;77.43
53506;BME280;39388;50.936;6.848;2023-02-12T11:11:13;103295.50;;;11.43;77.06
53506;BME280;39388;50.936;6.848;2023-02-12T11:14:06;103299.81;;;11.42;76.50
53506;BME280;39388;50.936;6.848;2023-02-12T11:16:58;103298.88;;;11.40;76.97
53506;BME280;39388;50.936;6.848;2023-02-12T11:19:30;103295.47;;;11.41;76.54
53506;BME280;39388;50.936;6.848;2023-02-12T11:22:14;103292.06;;;11.42;76.21
53506;BME280;39388;50.936;6.848;2023-02-12T11:24:59;103288.75;;;11.46;75.73
53506;BME280;39388;50.936;6.848;2023-02-12T11:27:31;103285.28;;;11.46;75.67
53506;BME280;39388;50.936;6.848;2023-02-12T11:30:19;103278.44;;;11.48;75.63
53506;BME280;39388;50.936;6.848;2023-02-12T11:32:50;103280.47;;;11.57;75.60
53506;BME280;39388;50.936;6.848;2023-02-12T11:35:24;103273.00;;;11.66;75.20
53506;BME280;39388;50.936;6.848;2023-02-12T11:37:57;103268.97;;;11.74;75.54
53506;BME280;39388;50.936;6.848;2023-02-12T11:40:32;103269.22;;;11.82;75.05
53506;BME280;39388;50.936;6.848;2023-02-12T11:43:04;103260.47;;;11.78;74.45
53506;BME280;39388;50.936;6.848;2023-02-12T11:45:44;103264.91;;;11.81;73.94
53506;BME280;39388;50.936;6.848;2023-02-12T11:48:28;103260.53;;;11.80;73.81
53506;BME280;39388;50.936;6.848;2023-02-12T11:51:02;103254.56;;;11.81;73.57
53506;BME280;39388;50.936;6.848;2023-02-12T11:53:37;103262.44;;;11.86;73.83
53506;BME280;39388;50.936;6.848;2023-02-12T11:56:11;103253.06;;;11.89;73.31
53506;BME280;39388;50.936;6.848;2023-02-12T11:58:42;103252.25;;;11.90;73.50
53506;BME280;39388;50.936;6.848;2023-02-12T12:01:25;103252.97;;;11.86;73.08
53506;BME280;39388;50.936;6.848;2023-02-12T12:06:38;103252.00;;;11.83;73.07
53506;BME280;39388;50.936;6.848;2023-02-12T12:14:47;103246.38;;;11.69;72.97
53506;BME280;39388;50.936;6.848;2023-02-12T12:20:42;103229.34;;;11.75;73.08
53506;BME280;39388;50.936;6.848;2023-02-12T12:23:19;103239.19;;;11.86;72.66
53506;BME280;39388;50.936;6.848;2023-02-12T12:25:54;103236.69;;;11.89;72.57
53506;BME280;39388;50.936;6.848;2023-02-12T12:28:47;103231.53;;;11.89;72.24
53506;BME280;39388;50.936;6.848;2023-02-12T12:31:40;103227.28;;;11.91;72.28
53506;BME280;39388;50.936;6.848;2023-02-12T12:34:14;103235.09;;;11.94;72.30
53506;BME280;39388;50.936;6.848;2023-02-12T12:50:24;103201.50;;;11.94;71.84
53506;BME280;39388;50.936;6.848;2023-02-12T13:27:00;103164.19;;;12.16;71.51
53506;BME280;39388;50.936;6.848;2023-02-12T13:29:35;103169.44;;;12.18;71.25
53506;BME280;39388;50.936;6.848;2023-02-12T13:32:15;103165.91;;;12.16;71.65
53506;BME280;39388;50.936;6.848;2023-02-12T13:34:53;103163.28;;;12.14;71.30
53506;BME280;39388;50.936;6.848;2023-02-12T13:37:44;103165.00;;;12.14;70.95
53506;BME280;39388;50.936;6.848;2023-02-12T13:40:20;103145.03;;;12.09;70.75
53506;BME280;39388;50.936;6.848;2023-02-12T13:57:19;103131.88;;;12.00;70.60
53506;BME280;39388;50.936;6.848;2023-02-12T13:59:54;103141.50;;;12.06;70.63
53506;BME280;39388;50.936;6.848;2023-02-12T14:04:59;103137.25;;;12.08;70.97
53506;BME280;39388;50.936;6.848;2023-02-12T14:07:41;103138.25;;;12.13;71.03
53506;BME280;39388;50.936;6.848;2023-02-12T14:10:31;103134.75;;;12.11;70.43
53506;BME280;39388;50.936;6.848;2023-02-12T14:13:22;103139.00;;;12.09;70.76
53506;BME280;39388;50.936;6.848;2023-02-12T14:15:55;103127.56;;;12.01;70.95
53506;BME280;39388;50.936;6.848;2023-02-12T14:18:35;103124.94;;;11.99;70.63
53506;BME280;39388;50.936;6.848;2023-02-12T14:23:43;103141.47;;;12.04;71.15
53506;BME280;39388;50.936;6.848;2023-02-12T14:26:21;103140.56;;;12.02;71.42
53506;BME280;39388;50.936;6.848;2023-02-12T14:29:03;103116.84;;;11.87;71.36
53506;BME280;39388;50.936;6.848;2023-02-12T14:31:37;103140.56;;;12.02;71.48
53506;BME280;39388;50.936;6.848;2023-02-12T14:36:40;103147.50;;;12.05;71.04
53506;BME280;39388;50.936;6.848;2023-02-12T14:41:50;103143.13;;;12.02;70.89
53506;BME280;39388;50.936;6.848;2023-02-12T14:47:04;103139.63;;;12.00;71.65
53506;BME280;39388;50.936;6.848;2023-02-12T14:49:47;103134.34;;;11.97;71.45
53506;BME280;39388;50.936;6.848;2023-02-12T14:52:25;103130.84;;;11.95;71.37
53506;BME280;39388;50.936;6.848;2023-02-12T14:54:59;103133.44;;;11.95;71.27
53506;BME280;39388;50.936;6.848;2023-02-12T14:57:39;103128.09;;;11.89;71.43
53506;BME280;39388;50.936;6.848;2023-02-12T15:06:01;103146.16;;;11.87;71.47
53506;BME280;39388;50.936;6.848;2023-02-12T15:11:24;103136.59;;;11.85;71.61
53506;BME280;39388;50.936;6.848;2023-02-12T15:14:19;103138.25;;;11.83;71.48
53506;BME280;39388;50.936;6.848;2023-02-12T15:19:45;103130.50;;;11.83;71.90
53506;BME280;39388;50.936;6.848;2023-02-12T15:28:38;103127.81;;;11.79;71.69
53506;BME280;39388;50.936;6.848;2023-02-12T15:30:44;103120.97;;;11.80;71.84
53506;BME280;39388;50.936;6.848;2023-02-12T15:33:23;103120.97;;;11.80;71.71
53506;BME280;39388;50.936;6.848;2023-02-12T15:35:56;103119.97;;;11.76;72.08
53506;BME280;39388;50.936;6.848;2023-02-12T15:38:41;103123.31;;;11.74;71.42
53506;BME280;39388;50.936;6.848;2023-02-12T15:41:42;103123.31;;;11.74;71.44
53506;BME280;39388;50.936;6.848;2023-02-12T15:44:30;103122.41;;;11.72;71.55
53506;BME280;39388;50.936;6.848;2023-02-12T15:47:14;103121.44;;;11.68;71.49
53506;BME280;39388;50.936;6.848;2023-02-12T15:49:46;103110.97;;;11.63;71.95
53506;BME280;39388;50.936;6.848;2023-02-12T15:52:19;103110.19;;;11.66;71.86
53506;BME280;39388;50.936;6.848;2023-02-12T15:54:50;103105.84;;;11.65;72.39
53506;BME280;39388;50.936;6.848;2023-02-12T15:57:22;103117.16;;;11.69;72.11
53506;BME280;39388;50.936;6.848;2023-02-12T15:59:56;103100.59;;;11.62;72.09
53506;BME280;39388;50.936;6.848;2023-02-12T16:02:30;103108.47;;;11.67;72.44
53506;BME280;39388;50.936;6.848;2023-02-12T16:05:03;103108.41;;;11.65;72.35
53506;BME280;39388;50.936;6.848;2023-02-12T16:07:34;103110.16;;;11.64;72.62
53506;BME280;39388;50.936;6.848;2023-02-12T16:10:06;103109.22;;;11.62;72.47
53506;BME280;39388;50.936;6.848;2023-02-12T16:12:38;103093.50;;;11.55;72.94
53506;BME280;39388;50.936;6.848;2023-02-12T16:15:30;103105.63;;;11.57;72.86
53506;BME280;39388;50.936;6.848;2023-02-12T16:18:03;103100.28;;;11.51;73.07
53506;BME280;39388;50.936;6.848;2023-02-12T16:20:34;103105.44;;;11.51;73.21
53506;BME280;39388;50.936;6.848;2023-02-12T16:23:05;103098.50;;;11.48;73.06
53506;BME280;39388;50.936;6.848;2023-02-12T16:25:36;103106.19;;;11.47;73.56
53506;BME280;39388;50.936;6.848;2023-02-12T16:28:31;103098.28;;;11.42;73.28
53506;BME280;39388;50.936;6.848;2023-02-12T16:31:10;103100.00;;;11.42;73.70
53506;BME280;39388;50.936;6.848;2023-02-12T16:33:47;103115.56;;;11.43;74.03
53506;BME280;39388;50.936;6.848;2023-02-12T16:39:03;103105.00;;;11.36;73.97
53506;BME280;39388;50.936;6.848;2023-02-12T16:41:50;103110.19;;;11.37;74.37
53506;BME280;39388;50.936;6.848;2023-02-12T16:44:26;103113.59;;;11.36;73.91